createdAt,value
2023-01-17T00:01:06.147Z,2.73
2023-01-17T00:03:34.297Z,2.37
2023-01-17T00:06:19.702Z,2.30
2023-01-17T00:09:07.089Z,2.57
2023-01-17T00:11:35.069Z,2.63
2023-01-17T00:14:03.045Z,2.40
2023-01-17T00:16:30.972Z,2.60
2023-01-17T00:19:16.132Z,2.27
2023-01-17T00:22:01.400Z,2.50
2023-01-17T00:24:48.383Z,2.60
2023-01-17T00:27:15.098Z,2.63
2023-01-17T00:29:41.718Z,3.03
2023-01-17T00:32:08.414Z,2.40
2023-01-17T00:34:35.053Z,2.60
2023-01-17T00:37:01.697Z,2.40
2023-01-17T00:39:29.681Z,2.53
2023-01-17T00:41:56.469Z,2.70
2023-01-17T00:44:42.048Z,2.20
2023-01-17T00:47:27.393Z,2.67
2023-01-17T00:50:12.588Z,2.70
2023-01-17T00:52:57.972Z,2.40
2023-01-17T00:55:44.845Z,2.30
2023-01-17T00:58:30.483Z,2.40
2023-01-17T01:01:16.127Z,2.50
2023-01-17T01:04:01.779Z,2.80
2023-01-17T01:06:47.206Z,2.30
2023-01-17T01:09:32.731Z,2.50
2023-01-17T01:12:19.510Z,2.50
2023-01-17T01:15:05.065Z,2.47
2023-01-17T01:17:50.324Z,2.60
2023-01-17T01:20:35.760Z,2.47
2023-01-17T01:23:22.713Z,2.30
2023-01-17T01:26:08.266Z,2.80
2023-01-17T01:28:55.009Z,2.40
2023-01-17T01:31:40.508Z,2.50
2023-01-17T01:34:08.203Z,2.13
2023-01-17T01:36:35.894Z,2.50
2023-01-17T01:39:03.677Z,2.47
2023-01-17T01:41:31.574Z,2.63
2023-01-17T01:44:00.760Z,2.50
2023-01-17T01:46:31.114Z,2.20
2023-01-17T01:49:00.136Z,2.40
2023-01-17T01:51:30.484Z,2.20
2023-01-17T01:54:01.599Z,2.37
2023-01-17T01:56:29.497Z,2.33
2023-01-17T01:58:57.464Z,1.90
2023-01-17T02:01:26.876Z,2.40
2023-01-17T02:03:54.969Z,2.43
2023-01-17T02:06:28.643Z,2.30
2023-01-17T02:08:58.050Z,2.30
2023-01-17T02:11:25.888Z,2.77
2023-01-17T02:13:53.556Z,2.10
2023-01-17T02:16:44.625Z,2.43
2023-01-17T02:19:28.711Z,2.20
2023-01-17T02:22:00.490Z,2.23
2023-01-17T02:25:03.795Z,1.97
2023-01-17T02:27:35.420Z,2.20
2023-01-17T02:30:34.327Z,2.40
2023-01-17T02:33:09.476Z,1.90
2023-01-17T02:35:41.911Z,2.27
2023-01-17T02:38:15.435Z,2.00
2023-01-17T02:40:44.287Z,1.97
2023-01-17T02:43:12.992Z,2.30
2023-01-17T02:45:42.020Z,2.00
2023-01-17T02:48:11.117Z,1.80
2023-01-17T02:50:47.197Z,1.70
2023-01-17T02:53:23.465Z,1.90
2023-01-17T02:55:54.995Z,1.80
2023-01-17T02:58:30.944Z,2.20
2023-01-17T03:01:04.921Z,1.90
2023-01-17T03:03:35.588Z,1.90
2023-01-17T03:06:11.385Z,1.90
2023-01-17T03:08:40.705Z,1.73
2023-01-17T03:11:09.670Z,2.00
2023-01-17T03:13:37.536Z,2.13
2023-01-17T03:16:11.336Z,2.00
2023-01-17T03:18:40.454Z,1.90
2023-01-17T03:21:08.355Z,1.90
2023-01-17T03:23:36.529Z,1.87
2023-01-17T03:26:04.385Z,1.83
2023-01-17T03:28:32.578Z,2.03
2023-01-17T03:31:00.305Z,2.07
2023-01-17T03:33:29.370Z,2.00
2023-01-17T03:35:58.064Z,1.70
2023-01-17T03:38:26.488Z,1.97
2023-01-17T03:40:54.271Z,1.40
2023-01-17T03:43:22.016Z,2.07
2023-01-17T03:45:50.862Z,1.97
2023-01-17T03:48:18.653Z,1.87
2023-01-17T03:50:51.921Z,1.80
2023-01-17T03:53:19.586Z,1.90
2023-01-17T03:55:47.908Z,2.03
2023-01-17T03:58:16.325Z,2.00
2023-01-17T04:00:44.793Z,2.03
2023-01-17T04:03:12.717Z,1.60
2023-01-17T04:05:40.571Z,1.70
2023-01-17T04:08:10.124Z,1.70
2023-01-17T04:10:38.089Z,1.83
2023-01-17T04:13:06.280Z,1.90
2023-01-17T04:15:34.124Z,1.90
2023-01-17T04:18:01.803Z,2.00
2023-01-17T04:20:31.905Z,1.90
2023-01-17T04:22:59.693Z,1.70
2023-01-17T04:25:30.573Z,1.73
2023-01-17T04:27:59.397Z,1.70
2023-01-17T04:30:27.481Z,1.47
2023-01-17T04:32:55.308Z,2.10
2023-01-17T04:35:23.608Z,1.60
2023-01-17T04:37:51.526Z,1.47
2023-01-17T04:40:19.738Z,1.90
2023-01-17T04:42:49.258Z,1.57
2023-01-17T04:45:17.956Z,2.33
2023-01-17T04:47:45.637Z,1.63
2023-01-17T04:50:13.965Z,1.93
2023-01-17T04:52:41.714Z,1.70
2023-01-17T04:55:10.499Z,1.80
2023-01-17T04:57:38.424Z,1.80
2023-01-17T05:00:09.248Z,2.20
2023-01-17T05:02:37.597Z,1.93
2023-01-17T05:05:06.323Z,2.00
2023-01-17T05:07:35.766Z,1.53
2023-01-17T05:10:04.537Z,1.63
2023-01-17T05:12:32.975Z,1.50
2023-01-17T05:15:00.860Z,1.77
2023-01-17T05:17:30.027Z,1.90
2023-01-17T05:19:57.678Z,1.77
2023-01-17T05:22:25.691Z,1.77
2023-01-17T05:24:53.463Z,1.60
2023-01-17T05:27:21.631Z,2.27
2023-01-17T05:29:49.320Z,1.50
2023-01-17T05:32:17.292Z,1.60
2023-01-17T05:34:46.306Z,1.83
2023-01-17T05:37:14.559Z,1.73
2023-01-17T05:39:42.222Z,1.50
2023-01-17T05:42:10.491Z,1.60
2023-01-17T05:44:38.622Z,1.43
2023-01-17T05:47:06.321Z,1.67
2023-01-17T05:49:34.587Z,1.50
2023-01-17T05:52:03.630Z,1.73
2023-01-17T05:54:31.294Z,1.40
2023-01-17T05:56:58.951Z,1.83
2023-01-17T05:59:36.394Z,1.80
2023-01-17T06:02:05.381Z,1.30
2023-01-17T06:04:33.593Z,1.50
2023-01-17T06:07:02.609Z,1.70
2023-01-17T06:09:30.686Z,2.00
2023-01-17T06:11:58.350Z,1.57
2023-01-17T06:14:26.036Z,1.50
2023-01-17T06:16:53.726Z,1.60
2023-01-17T06:19:21.394Z,1.77
2023-01-17T06:21:49.595Z,1.80
2023-01-17T06:24:18.594Z,1.80
2023-01-17T06:26:46.578Z,1.60
2023-01-17T06:29:14.541Z,1.57
2023-01-17T06:31:42.843Z,1.50
2023-01-17T06:34:11.095Z,1.60
2023-01-17T06:36:39.204Z,1.67
2023-01-17T06:39:07.063Z,1.50
2023-01-17T06:41:36.737Z,1.90
2023-01-17T06:44:04.551Z,1.67
2023-01-17T06:46:32.653Z,1.67
2023-01-17T06:49:00.654Z,1.30
2023-01-17T06:51:28.940Z,1.80
2023-01-17T06:53:57.293Z,1.40
2023-01-17T06:56:25.054Z,1.57
2023-01-17T06:58:54.548Z,1.57
2023-01-17T07:01:22.571Z,1.27
2023-01-17T07:03:52.743Z,1.70
2023-01-17T07:06:20.571Z,1.90
2023-01-17T07:08:49.469Z,1.77
2023-01-17T07:11:17.489Z,1.50
2023-01-17T07:13:45.447Z,1.50
2023-01-17T07:16:14.716Z,1.50
2023-01-17T07:18:42.547Z,1.40
2023-01-17T07:21:13.850Z,1.63
2023-01-17T07:23:41.763Z,1.40
2023-01-17T07:26:10.109Z,1.53
2023-01-17T07:28:38.011Z,1.53
2023-01-17T07:31:07.685Z,1.33
2023-01-17T07:33:36.945Z,1.40
2023-01-17T07:36:06.642Z,1.73
2023-01-17T07:38:34.395Z,1.83
2023-01-17T07:41:02.482Z,1.53
2023-01-17T07:43:30.261Z,1.57
2023-01-17T07:46:01.360Z,1.67
2023-01-17T07:48:29.958Z,1.70
2023-01-17T07:50:59.904Z,2.50
2023-01-17T07:53:28.273Z,2.40
2023-01-17T07:55:56.600Z,3.43
2023-01-17T07:58:24.295Z,2.17
2023-01-17T08:00:52.061Z,3.10
2023-01-17T08:03:20.258Z,2.90
2023-01-17T08:05:54.281Z,2.80
2023-01-17T08:08:23.733Z,3.00
2023-01-17T08:10:51.795Z,3.30
2023-01-17T08:13:20.081Z,3.10
2023-01-17T08:15:49.382Z,3.13
2023-01-17T08:18:17.703Z,3.13
2023-01-17T08:20:45.550Z,3.17
2023-01-17T08:23:13.834Z,3.20
2023-01-17T08:25:43.015Z,3.57
2023-01-17T08:28:11.303Z,3.23
2023-01-17T08:30:39.234Z,3.27
2023-01-17T08:33:07.528Z,3.50
2023-01-17T08:35:36.437Z,3.40
2023-01-17T08:38:04.932Z,3.20
2023-01-17T08:40:33.454Z,3.20
2023-01-17T08:43:03.837Z,3.47
2023-01-17T08:45:31.550Z,3.03
2023-01-17T08:47:59.958Z,3.17
2023-01-17T08:50:27.830Z,3.50
2023-01-17T08:53:00.934Z,3.00
2023-01-17T08:55:29.569Z,3.77
2023-01-17T08:57:57.812Z,3.07
2023-01-17T09:00:28.952Z,3.23
2023-01-17T09:02:56.791Z,3.10
2023-01-17T09:05:24.683Z,2.73
2023-01-17T09:07:53.152Z,2.70
2023-01-17T09:10:23.229Z,2.83
2023-01-17T09:12:51.627Z,3.07
2023-01-17T09:15:20.359Z,2.97
2023-01-17T09:17:49.999Z,3.00
2023-01-17T09:20:18.438Z,2.87
2023-01-17T09:22:46.781Z,2.60
2023-01-17T09:25:14.742Z,3.50
2023-01-17T09:27:46.231Z,3.17
2023-01-17T09:30:14.927Z,2.87
2023-01-17T09:32:42.852Z,2.87
2023-01-17T09:35:13.886Z,2.77
2023-01-17T09:37:41.697Z,2.77
2023-01-17T09:40:13.434Z,3.33
2023-01-17T09:42:41.211Z,2.53
2023-01-17T09:45:12.166Z,2.50
2023-01-17T09:47:42.340Z,2.30
2023-01-17T09:50:23.967Z,2.77
2023-01-17T09:52:51.645Z,2.50
2023-01-17T09:55:19.398Z,2.50
2023-01-17T09:57:53.411Z,2.80
2023-01-17T10:00:38.349Z,2.30
2023-01-17T10:03:32.069Z,2.43
2023-01-17T10:06:06.447Z,2.37
2023-01-17T10:08:43.801Z,2.47
2023-01-17T10:11:24.773Z,2.33
2023-01-17T10:13:56.899Z,2.20
2023-01-17T10:16:32.061Z,2.10
2023-01-17T10:19:15.608Z,2.20
2023-01-17T10:22:02.040Z,1.77
2023-01-17T10:24:37.941Z,1.80
2023-01-17T10:27:09.561Z,1.83
2023-01-17T10:29:37.377Z,1.73
2023-01-17T10:32:05.622Z,1.80
2023-01-17T10:34:36.016Z,1.80
2023-01-17T10:37:12.287Z,1.63
2023-01-17T10:39:40.250Z,2.13
2023-01-17T10:42:08.760Z,1.80
2023-01-17T10:44:38.784Z,1.60
2023-01-17T10:47:08.429Z,2.00
2023-01-17T10:49:37.684Z,1.87
2023-01-17T10:52:13.328Z,1.87
2023-01-17T10:54:59.512Z,1.30
2023-01-17T10:57:28.337Z,1.77
2023-01-17T10:59:59.947Z,1.63
2023-01-17T11:02:30.119Z,1.40
2023-01-17T11:04:58.247Z,1.97
2023-01-17T11:07:28.405Z,2.20
2023-01-17T11:09:58.201Z,1.77
2023-01-17T11:12:30.668Z,1.70
2023-01-17T11:15:04.963Z,1.90
2023-01-17T11:17:33.372Z,1.53
2023-01-17T11:20:17.033Z,1.53
2023-01-17T11:22:49.832Z,1.53
2023-01-17T11:25:22.588Z,1.80
2023-01-17T11:27:58.697Z,1.70
2023-01-17T11:30:29.768Z,1.50
2023-01-17T11:32:58.113Z,1.93
2023-01-17T11:35:26.563Z,1.60
2023-01-17T11:38:05.663Z,1.57
2023-01-17T11:40:37.190Z,1.47
2023-01-17T11:43:07.835Z,1.70
2023-01-17T11:45:35.596Z,1.63
2023-01-17T11:48:11.076Z,1.63
2023-01-17T11:50:39.749Z,1.70
2023-01-17T11:53:20.849Z,1.40
2023-01-17T11:56:03.937Z,1.27
2023-01-17T11:58:31.909Z,1.63
2023-01-17T12:01:08.649Z,1.50
2023-01-17T12:04:01.268Z,1.20
2023-01-17T12:06:32.390Z,1.20
2023-01-17T12:09:08.743Z,1.20
2023-01-17T12:12:03.228Z,1.43
2023-01-17T12:14:34.696Z,1.10
2023-01-17T12:17:06.898Z,1.30
2023-01-17T12:19:45.797Z,1.50
2023-01-17T12:22:24.249Z,1.33
2023-01-17T12:25:04.403Z,1.53
2023-01-17T12:27:35.913Z,1.13
2023-01-17T12:30:09.284Z,1.70
2023-01-17T12:32:55.294Z,1.50
2023-01-17T12:35:25.794Z,1.60
2023-01-17T12:38:04.741Z,1.40
2023-01-17T12:40:36.862Z,1.90
2023-01-17T12:43:06.884Z,1.40
2023-01-17T12:45:37.610Z,1.50
2023-01-17T12:48:06.868Z,1.50
2023-01-17T12:50:37.668Z,1.50
2023-01-17T12:53:11.513Z,1.20
2023-01-17T12:55:44.359Z,1.37
2023-01-17T12:58:16.201Z,1.30
2023-01-17T13:00:43.984Z,1.40
2023-01-17T13:03:15.699Z,1.50
2023-01-17T13:05:46.403Z,1.07
2023-01-17T13:08:19.738Z,1.80
2023-01-17T13:10:51.518Z,1.50
2023-01-17T13:13:22.461Z,1.20
2023-01-17T13:15:51.125Z,1.20
2023-01-17T13:18:23.005Z,1.33
2023-01-17T13:21:05.218Z,1.30
2023-01-17T13:23:45.566Z,1.60
2023-01-17T13:26:20.762Z,1.30
2023-01-17T13:28:53.549Z,1.20
2023-01-17T13:31:28.172Z,1.20
2023-01-17T13:34:03.970Z,1.30
2023-01-17T13:36:45.750Z,1.80
2023-01-17T13:39:27.284Z,1.70
2023-01-17T13:42:04.384Z,2.20
2023-01-17T13:44:33.393Z,2.30
2023-01-17T13:47:02.706Z,2.60
2023-01-17T13:49:44.068Z,2.73
2023-01-17T13:52:12.237Z,3.70
2023-01-17T13:54:47.648Z,3.60
2023-01-17T13:57:42.078Z,3.40
2023-01-17T14:00:51.572Z,3.23
2023-01-17T14:03:53.170Z,3.60
2023-01-17T14:06:34.472Z,3.60
2023-01-17T14:09:03.544Z,3.23
2023-01-17T14:11:34.035Z,3.20
2023-01-17T14:14:35.420Z,2.80
2023-01-17T14:17:49.348Z,3.30
2023-01-17T14:20:39.254Z,3.00
2023-01-17T14:23:25.313Z,3.30
2023-01-17T14:25:53.137Z,2.63
2023-01-17T14:28:24.063Z,3.10
2023-01-17T14:30:56.398Z,2.93
2023-01-17T14:33:29.158Z,2.40
2023-01-17T14:36:00.006Z,2.77
2023-01-17T14:38:28.429Z,2.37
2023-01-17T14:40:57.167Z,2.40
2023-01-17T14:43:25.895Z,2.43
2023-01-17T14:45:58.284Z,2.93
2023-01-17T14:48:26.174Z,2.40
2023-01-17T14:50:55.367Z,2.50
2023-01-17T14:53:28.246Z,2.50
2023-01-17T14:56:00.872Z,2.93
2023-01-17T14:58:30.036Z,2.90
2023-01-17T15:01:02.286Z,2.80
2023-01-17T15:03:30.421Z,3.20
2023-01-17T15:05:58.704Z,2.83
2023-01-17T15:08:31.759Z,3.13
2023-01-17T15:11:02.895Z,2.70
2023-01-17T15:13:43.784Z,3.50
2023-01-17T15:16:19.234Z,3.23
2023-01-17T15:18:47.557Z,3.63
2023-01-17T15:21:17.285Z,3.70
2023-01-17T15:23:48.640Z,3.37
2023-01-17T15:26:17.901Z,3.37
2023-01-17T15:28:45.890Z,3.50
2023-01-17T15:31:15.777Z,3.87
2023-01-17T15:33:45.007Z,3.83
2023-01-17T15:36:22.832Z,4.17
2023-01-17T15:38:55.399Z,3.70
2023-01-17T15:41:26.364Z,2.80
2023-01-17T15:43:57.531Z,2.77
2023-01-17T15:46:29.225Z,2.80
2023-01-17T15:49:08.021Z,2.53
2023-01-17T15:51:37.649Z,2.30
2023-01-17T15:54:26.247Z,2.30
2023-01-17T15:57:08.381Z,1.90
2023-01-17T15:59:45.439Z,2.60
2023-01-17T16:02:34.545Z,2.23
2023-01-17T16:05:03.328Z,2.57
2023-01-17T16:07:35.137Z,2.60
2023-01-17T16:10:07.569Z,2.20
2023-01-17T16:12:35.290Z,2.43
2023-01-17T16:15:12.555Z,2.30
2023-01-17T16:17:41.077Z,2.40
2023-01-17T16:20:15.912Z,2.60
2023-01-17T16:22:44.892Z,2.87
2023-01-17T16:25:17.864Z,3.20
2023-01-17T16:27:46.817Z,2.60
2023-01-17T16:30:16.108Z,2.67
2023-01-17T16:32:43.876Z,2.20
2023-01-17T16:35:14.269Z,2.83
2023-01-17T16:37:42.020Z,2.67
2023-01-17T16:40:11.277Z,2.50
2023-01-17T16:42:40.338Z,2.97
2023-01-17T16:45:08.819Z,3.10
2023-01-17T16:47:36.491Z,2.70
2023-01-17T16:50:04.516Z,2.63
2023-01-17T16:52:32.506Z,2.87
2023-01-17T16:55:00.492Z,2.70
2023-01-17T16:57:28.358Z,3.30
2023-01-17T16:59:57.941Z,3.03
2023-01-17T17:02:25.650Z,3.37
2023-01-17T17:04:54.122Z,3.40
2023-01-17T17:07:22.017Z,2.87
2023-01-17T17:09:50.194Z,2.60
2023-01-17T17:12:18.003Z,2.87
2023-01-17T17:14:45.820Z,2.70
2023-01-17T17:17:15.686Z,3.27
2023-01-17T17:19:43.753Z,3.10
2023-01-17T17:22:11.417Z,3.30
2023-01-17T17:24:39.152Z,3.63
2023-01-17T17:27:06.836Z,4.57
2023-01-17T17:29:34.818Z,3.70
2023-01-17T17:32:02.784Z,3.23
2023-01-17T17:34:34.231Z,3.73
2023-01-17T17:37:03.835Z,3.40
2023-01-17T17:39:32.298Z,3.63
2023-01-17T17:42:00.561Z,3.80
2023-01-17T17:44:28.404Z,3.50
2023-01-17T17:46:57.065Z,4.40
2023-01-17T17:49:25.211Z,3.87
2023-01-17T17:51:55.345Z,4.07
2023-01-17T17:54:24.652Z,4.03
2023-01-17T17:56:53.929Z,3.60
2023-01-17T17:59:21.796Z,4.73
2023-01-17T18:01:49.801Z,5.10
2023-01-17T18:04:18.000Z,5.40
2023-01-17T18:06:45.985Z,5.37
2023-01-17T18:09:15.904Z,5.43
2023-01-17T18:11:44.296Z,4.93
2023-01-17T18:14:13.747Z,4.77
2023-01-17T18:16:42.552Z,4.97
2023-01-17T18:19:13.135Z,4.37
2023-01-17T18:21:41.049Z,5.20
2023-01-17T18:24:10.359Z,4.90
2023-01-17T18:26:40.217Z,5.30
2023-01-17T18:29:08.719Z,5.43
2023-01-17T18:31:36.650Z,4.53
2023-01-17T18:34:05.936Z,4.80
2023-01-17T18:36:35.323Z,5.80
2023-01-17T18:39:03.294Z,5.10
2023-01-17T18:41:32.000Z,4.73
2023-01-17T18:44:04.226Z,4.77
2023-01-17T18:46:32.736Z,5.00
2023-01-17T18:49:00.616Z,4.73
2023-01-17T18:51:30.246Z,4.10
2023-01-17T18:53:59.368Z,4.70
2023-01-17T18:56:30.686Z,4.70
2023-01-17T18:58:58.674Z,5.33
2023-01-17T19:01:28.645Z,5.30
2023-01-17T19:03:57.772Z,5.03
2023-01-17T19:06:26.934Z,5.60
2023-01-17T19:08:54.808Z,5.10
2023-01-17T19:11:23.734Z,5.00
2023-01-17T19:13:52.448Z,5.10
2023-01-17T19:16:21.768Z,5.50
2023-01-17T19:18:51.604Z,5.80
2023-01-17T19:21:20.386Z,6.07
2023-01-17T19:23:48.727Z,5.10
2023-01-17T19:26:17.169Z,5.33
2023-01-17T19:28:46.397Z,5.40
2023-01-17T19:31:16.247Z,5.53
2023-01-17T19:33:45.670Z,5.07
2023-01-17T19:36:17.155Z,5.23
2023-01-17T19:38:58.769Z,6.20
2023-01-17T19:41:30.793Z,5.53
2023-01-17T19:43:59.428Z,5.63
2023-01-17T19:46:27.592Z,5.67
2023-01-17T19:48:56.055Z,5.70
2023-01-17T19:51:25.478Z,5.80
2023-01-17T19:53:53.683Z,5.40
2023-01-17T19:56:22.324Z,5.27
2023-01-17T19:58:50.023Z,5.77
2023-01-17T20:01:18.694Z,6.07
2023-01-17T20:03:47.071Z,6.07
2023-01-17T20:06:16.356Z,5.70
2023-01-17T20:08:45.951Z,5.77
2023-01-17T20:11:14.874Z,6.03
2023-01-17T20:13:42.616Z,5.47
2023-01-17T20:16:12.024Z,5.73
2023-01-17T20:18:39.956Z,6.80
2023-01-17T20:21:08.779Z,5.33
2023-01-17T20:23:36.659Z,5.77
2023-01-17T20:26:06.071Z,5.13
2023-01-17T20:28:34.303Z,5.10
2023-01-17T20:31:05.600Z,4.67
2023-01-17T20:33:33.310Z,5.60
2023-01-17T20:36:09.960Z,4.87
2023-01-17T20:38:44.529Z,5.50
2023-01-17T20:41:14.804Z,4.47
2023-01-17T20:43:43.188Z,4.60
2023-01-17T20:46:11.386Z,4.77
2023-01-17T20:48:44.301Z,4.83
2023-01-17T20:51:12.169Z,4.60
2023-01-17T20:53:40.956Z,4.60
2023-01-17T20:56:09.140Z,4.10
2023-01-17T20:58:38.513Z,4.07
2023-01-17T21:01:06.775Z,4.10
2023-01-17T21:03:35.317Z,4.70
2023-01-17T21:06:03.813Z,4.23
2023-01-17T21:08:32.446Z,4.07
2023-01-17T21:11:00.271Z,3.80
2023-01-17T21:13:28.239Z,3.90
2023-01-17T21:15:57.638Z,3.60
2023-01-17T21:18:26.025Z,3.50
2023-01-17T21:20:54.268Z,3.80
2023-01-17T21:23:26.225Z,3.10
2023-01-17T21:25:58.032Z,3.60
2023-01-17T21:28:26.575Z,3.80
2023-01-17T21:30:54.621Z,3.90
2023-01-17T21:33:24.909Z,2.90
2023-01-17T21:35:52.854Z,3.00
2023-01-17T21:38:20.517Z,3.90
2023-01-17T21:40:48.234Z,3.83
2023-01-17T21:43:16.139Z,3.53
2023-01-17T21:45:44.014Z,3.80
2023-01-17T21:48:13.130Z,4.37
2023-01-17T21:50:42.402Z,4.47
2023-01-17T21:53:10.824Z,4.60
2023-01-17T21:55:56.601Z,4.67
2023-01-17T21:58:42.037Z,4.27
2023-01-17T22:01:15.843Z,4.30
2023-01-17T22:03:43.863Z,3.83
2023-01-17T22:06:12.929Z,4.10
2023-01-17T22:08:40.574Z,3.70
2023-01-17T22:11:09.202Z,3.83
2023-01-17T22:13:37.262Z,3.60
2023-01-17T22:16:06.266Z,4.47
2023-01-17T22:18:36.366Z,4.20
2023-01-17T22:21:07.918Z,3.93
2023-01-17T22:23:36.932Z,3.93
2023-01-17T22:26:05.259Z,3.67
2023-01-17T22:28:33.318Z,3.90
2023-01-17T22:31:08.834Z,3.60
2023-01-17T22:33:36.821Z,3.43
2023-01-17T22:36:04.988Z,3.80
2023-01-17T22:38:33.432Z,3.97
2023-01-17T22:41:08.102Z,4.40
2023-01-17T22:43:37.518Z,3.60
2023-01-17T22:46:05.996Z,3.67
2023-01-17T22:48:34.063Z,3.40
2023-01-17T22:51:02.837Z,3.70
2023-01-17T22:53:31.627Z,3.70
2023-01-17T22:56:01.273Z,3.20
2023-01-17T22:58:30.673Z,3.30
2023-01-17T23:01:04.993Z,3.43
2023-01-17T23:03:33.080Z,2.80
2023-01-17T23:06:11.793Z,3.43
2023-01-17T23:08:39.896Z,3.33
2023-01-17T23:11:41.229Z,3.20
2023-01-17T23:14:12.740Z,2.73
2023-01-17T23:16:58.962Z,2.93
2023-01-17T23:19:27.339Z,3.07
2023-01-17T23:22:14.004Z,3.50
2023-01-17T23:24:43.903Z,2.77
2023-01-17T23:27:31.000Z,3.10
2023-01-17T23:30:00.819Z,3.10
2023-01-17T23:32:28.712Z,3.27
2023-01-17T23:34:56.382Z,3.90
2023-01-17T23:37:49.236Z,3.03
2023-01-17T23:40:17.351Z,2.87
2023-01-17T23:43:02.964Z,2.90
2023-01-17T23:45:34.444Z,3.30
2023-01-17T23:48:02.328Z,3.27
2023-01-17T23:50:29.987Z,3.13
2023-01-17T23:52:57.973Z,2.83
2023-01-17T23:55:25.906Z,3.60
2023-01-17T23:57:54.996Z,2.80
